KAMW/AMW METAR and TAF weather

Enter ICAO airport designator
Station Type Date Time Source
KAMW METAR 2018/12/12 22:53 UTC NOAA

KAMW 122253Z AUTO 12003KT 10SM CLR M01/M03 A2981 RMK AO2 SLP105 T10111028


Station Type Date Time Source
KAMW Decoded METAR 2018/12/12 22:53 UTC NOAA

AMES MUNICIPAL AIRPORT, IA, United States (KAMW) 41-59N 93-37W 279M
Dec 12, 2018 - 05:53 PM EST / 2018.12.12 2253 UTC
Wind: from the ESE (120 degrees) at 3 MPH (3 KT):0
Visibility: 10 mile(s):0
Sky conditions: clear
Temperature: 30.0 F (-1.1 C)
Dew Point: 27.0 F (-2.8 C)
Relative Humidity: 88%
Pressure (altimeter): 29.81 in. Hg (1009 hPa)
ob: KAMW 122253Z AUTO 12003KT 10SM CLR M01/M03 A2981 RMK AO2 SLP105 T10111028
cycle: 23

Station Type Date Time Source
KAMW TAF UTC NOAA

Error!


Example: see airport list